Time;durP1;ratioP1;P1;durP2;ratioP2;P2;SDS_P1;SDS_P2;PMS_P1;PMS_P2;Temp;Humidity;BMP_temperature;BMP_pressure;BME280_temperature;BME280_humidity;BME280_pressure;Samples;Min_cycle;Max_cycle;Signal;HPM_P1;HPM_P2
2021/04/24 04:10:16;;;;;;;1.20;1.20;;;5.50;99.90;;;;;;5951548;23;20178;31
2021/04/24 04:12:44;;;;;;;1.10;1.10;;;5.50;99.90;;;;;;4896113;29;20448;-74
2021/04/24 04:15:12;;;;;;;1.07;1.07;;;5.40;99.90;;;;;;4897806;29;20207;-74
2021/04/24 04:17:39;;;;;;;1.20;1.20;;;5.50;99.90;;;;;;4897676;29;20668;-74
2021/04/24 04:20:08;;;;;;;1.17;1.17;;;5.60;99.90;;;;;;4897727;29;20219;-74
2021/04/24 04:22:36;;;;;;;0.90;0.90;;;5.70;99.90;;;;;;4874867;29;20212;-73
2021/04/24 04:25:04;;;;;;;1.10;1.10;;;5.90;99.90;;;;;;4940878;23;20228;-76
2021/04/24 04:27:32;;;;;;;1.10;1.10;;;5.80;99.90;;;;;;4954306;29;20221;-75
2021/04/24 04:29:58;;;;;;;1.23;1.23;;;5.60;99.90;;;;;;4954897;29;20260;-77
2021/04/24 04:32:25;;;;;;;1.20;1.20;;;5.80;99.90;;;;;;4954966;29;20237;-76
2021/04/24 04:34:52;;;;;;;0.93;0.93;;;5.80;99.90;;;;;;4941230;29;20226;-76
2021/04/24 04:37:19;;;;;;;1.17;1.17;;;5.90;99.90;;;;;;4935796;29;20198;-76
2021/04/24 04:39:46;;;;;;;1.10;1.10;;;6.10;99.90;;;;;;4935789;29;20210;-76
2021/04/24 04:42:13;;;;;;;0.97;0.97;;;6.30;99.90;;;;;;4935307;29;20210;-76
2021/04/24 04:44:41;;;;;;;1.17;1.17;;;6.40;99.90;;;;;;4935908;29;20230;-76
2021/04/24 04:47:08;;;;;;;1.10;1.10;;;6.60;99.90;;;;;;4935733;29;20663;-77
2021/04/24 04:49:35;;;;;;;0.97;0.97;;;6.70;99.90;;;;;;4936641;29;20312;-77
2021/04/24 04:52:02;;;;;;;0.70;0.70;;;6.80;99.90;;;;;;4935605;29;20258;-76
2021/04/24 04:54:29;;;;;;;0.93;0.93;;;6.90;99.90;;;;;;4935019;29;20755;-76
2021/04/24 04:56:56;;;;;;;1.00;1.00;;;7.00;99.90;;;;;;4935354;29;20612;-76
2021/04/24 04:59:22;;;;;;;1.23;1.23;;;7.10;99.90;;;;;;4935802;29;20198;-75
2021/04/24 05:01:50;;;;;;;1.20;1.20;;;6.70;99.90;;;;;;4935521;29;20261;-75
2021/04/24 05:04:33;;;;;;;0.97;0.97;;;6.60;99.90;;;;;;4935210;29;20226;-76
2021/04/24 05:07:00;;;;;;;1.00;1.00;;;6.50;99.90;;;;;;4935103;29;20205;-76
2021/04/24 05:09:26;;;;;;;1.17;1.17;;;6.60;99.90;;;;;;4934723;29;20246;-75
2021/04/24 05:11:53;;;;;;;1.00;1.00;;;6.80;99.90;;;;;;4936191;29;20206;-76
2021/04/24 05:14:21;;;;;;;1.07;1.07;;;6.90;99.90;;;;;;4935906;29;20583;-76
2021/04/24 05:16:48;;;;;;;0.90;0.90;;;7.00;99.90;;;;;;4935225;29;20206;-76
2021/04/24 05:19:16;;;;;;;0.70;0.70;;;7.20;99.90;;;;;;4935387;29;20675;-76
2021/04/24 05:21:43;;;;;;;0.80;0.80;;;7.40;99.90;;;;;;4935196;29;20257;-75
2021/04/24 05:24:11;;;;;;;0.80;0.80;;;7.70;99.90;;;;;;4935630;29;20297;-77
2021/04/24 05:26:37;;;;;;;1.00;1.00;;;7.90;99.90;;;;;;4935099;29;20261;-76
2021/04/24 05:29:04;;;;;;;0.90;0.90;;;8.00;99.90;;;;;;4934632;29;20707;-76
2021/04/24 05:31:31;;;;;;;1.00;1.00;;;8.10;99.90;;;;;;4934689;29;20210;-76
2021/04/24 05:33:58;;;;;;;0.80;0.80;;;8.10;99.90;;;;;;4934828;29;20234;-76
2021/04/24 05:36:27;;;;;;;0.90;0.90;;;8.20;99.90;;;;;;4934996;29;20206;-74
2021/04/24 05:38:54;;;;;;;0.87;0.87;;;8.40;99.90;;;;;;4934964;29;20202;-75
2021/04/24 05:41:22;;;;;;;0.80;0.80;;;8.40;99.40;;;;;;4935021;29;20582;-76
2021/04/24 05:43:51;;;;;;;0.87;0.87;;;8.40;99.40;;;;;;4934726;29;20234;-74
2021/04/24 05:46:19;;;;;;;0.90;0.90;;;7.90;99.50;;;;;;4935028;29;20206;-75
2021/04/24 05:48:47;;;;;;;0.87;0.87;;;;;;;;;;4935376;29;20297;-76
2021/04/24 05:51:15;;;;;;;0.83;0.83;;;7.80;99.90;;;;;;4935440;29;20280;-76
2021/04/24 05:53:45;;;;;;;0.80;0.80;;;7.80;99.90;;;;;;4935604;29;20237;-76
2021/04/24 05:56:13;;;;;;;1.00;1.00;;;7.80;99.90;;;;;;4934963;29;20301;-76
2021/04/24 05:58:40;;;;;;;0.73;0.73;;;7.70;99.90;;;;;;4935307;29;20209;-76
2021/04/24 06:01:07;;;;;;;0.87;0.87;;;7.80;99.90;;;;;;4934666;29;20212;-76
2021/04/24 06:03:35;;;;;;;0.80;0.80;;;8.10;99.90;;;;;;4935174;29;20234;-78
2021/04/24 06:06:02;;;;;;;0.70;0.70;;;8.20;99.80;;;;;;4933444;29;20296;-77
2021/04/24 06:08:29;;;;;;;0.80;0.80;;;8.30;99.90;;;;;;4933782;29;20596;-77
2021/04/24 06:10:57;;;;;;;0.80;0.80;;;8.20;99.20;;;;;;4934145;29;20206;-76
2021/04/24 06:13:24;;;;;;;1.00;1.00;;;8.10;99.90;;;;;;4933612;29;20265;-77
2021/04/24 06:15:51;;;;;;;1.00;1.00;;;8.10;99.80;;;;;;4937466;29;20213;-76
2021/04/24 06:18:18;;;;;;;0.90;0.90;;;8.30;99.90;;;;;;4937906;29;20570;-77
2021/04/24 06:20:45;;;;;;;0.90;0.90;;;8.40;99.10;;;;;;4939106;29;20210;-76
2021/04/24 06:23:13;;;;;;;0.90;0.90;;;8.40;99.90;;;;;;4941138;29;20229;-75
2021/04/24 06:25:42;;;;;;;0.90;0.90;;;8.40;99.50;;;;;;4941152;29;20738;-76
2021/04/24 06:28:10;;;;;;;0.80;0.80;;;8.50;98.80;;;;;;4938630;29;20237;-77
2021/04/24 06:30:37;;;;;;;0.80;0.80;;;8.50;99.10;;;;;;4942504;29;20277;-77
2021/04/24 06:33:05;;;;;;;0.90;0.90;;;8.50;98.80;;;;;;4941633;29;20214;-77
2021/04/24 06:35:32;;;;;;;0.80;0.80;;;8.40;99.00;;;;;;4940943;29;20718;-78
2021/04/24 06:37:59;;;;;;;0.80;0.80;;;8.50;99.00;;;;;;4939154;29;20202;-77
2021/04/24 06:40:28;;;;;;;0.80;0.80;;;8.60;99.10;;;;;;4940587;29;20213;-78
2021/04/24 06:42:55;;;;;;;0.80;0.80;;;8.80;98.60;;;;;;4939451;29;20234;-78
2021/04/24 06:45:23;;;;;;;0.87;0.87;;;8.80;99.90;;;;;;4937581;29;20230;-77
2021/04/24 06:47:50;;;;;;;1.00;1.00;;;8.80;98.60;;;;;;4936671;29;20229;-75
2021/04/24 06:50:20;;;;;;;0.90;0.90;;;8.80;98.50;;;;;;4936517;29;20229;-78
2021/04/24 06:52:47;;;;;;;0.80;0.80;;;8.90;99.90;;;;;;4936573;29;20214;-78
2021/04/24 06:55:18;;;;;;;0.90;0.90;;;8.90;98.10;;;;;;4939422;29;20221;-78
2021/04/24 06:57:46;;;;;;;0.90;0.90;;;8.80;98.50;;;;;;4938428;29;20692;-78
2021/04/24 07:00:15;;;;;;;0.90;0.90;;;8.90;98.60;;;;;;4937612;29;20611;-78
2021/04/24 07:02:43;;;;;;;0.83;0.83;;;9.10;98.00;;;;;;4936923;29;20210;-77
2021/04/24 07:05:13;;;;;;;0.80;0.80;;;8.90;97.80;;;;;;4937489;29;20591;-75
2021/04/24 07:07:42;;;;;;;0.70;0.70;;;8.90;98.20;;;;;;4939153;29;20214;-75
2021/04/24 07:10:10;;;;;;;0.80;0.80;;;8.90;98.80;;;;;;4940428;29;20206;-75
2021/04/24 07:12:37;;;;;;;0.90;0.90;;;9.20;98.20;;;;;;4938288;29;20272;-75
2021/04/24 07:15:05;;;;;;;1.00;1.00;;;9.00;97.90;;;;;;4936852;29;20225;-75
2021/04/24 07:17:33;;;;;;;0.80;0.80;;;9.10;97.60;;;;;;4936019;29;20214;-75
2021/04/24 07:20:02;;;;;;;0.83;0.83;;;9.30;97.70;;;;;;4936795;29;20229;-75
2021/04/24 07:22:29;;;;;;;0.97;0.97;;;9.20;98.20;;;;;;4936918;29;20671;-76
2021/04/24 07:24:56;;;;;;;0.70;0.70;;;9.70;97.20;;;;;;4936354;29;20253;-76
2021/04/24 07:27:23;;;;;;;0.80;0.80;;;10.00;97.40;;;;;;4936400;29;20210;-76
2021/04/24 07:29:50;;;;;;;0.70;0.70;;;9.70;96.60;;;;;;4936226;29;20230;-76
2021/04/24 07:32:17;;;;;;;0.70;0.70;;;9.60;96.60;;;;;;4929982;29;20344;-75
2021/04/24 07:34:44;;;;;;;1.00;1.00;;;9.70;97.30;;;;;;4935547;29;20228;-75
2021/04/24 07:37:11;;;;;;;0.80;0.80;;;9.40;96.80;;;;;;4935676;29;20206;-75
2021/04/24 07:39:38;;;;;;;0.90;0.90;;;9.70;97.10;;;;;;4936126;29;20238;-75
2021/04/24 07:42:05;;;;;;;0.70;0.70;;;9.50;97.00;;;;;;4936109;29;20206;-77
2021/04/24 07:44:34;;;;;;;0.90;0.90;;;9.70;97.00;;;;;;4935060;29;20221;-77
2021/04/24 07:47:01;;;;;;;0.80;0.80;;;9.70;96.70;;;;;;4935961;29;20234;-77
2021/04/24 07:49:29;;;;;;;0.80;0.80;;;9.60;97.00;;;;;;4935144;29;20229;-77
2021/04/24 07:51:55;;;;;;;0.60;0.60;;;9.50;96.80;;;;;;4935139;29;20667;-76
2021/04/24 07:54:23;;;;;;;0.80;0.80;;;9.60;96.80;;;;;;4937740;29;20286;-77
2021/04/24 07:56:50;;;;;;;0.70;0.70;;;9.80;97.20;;;;;;4937933;29;20634;-76
2021/04/24 07:59:17;;;;;;;0.80;0.80;;;9.90;96.60;;;;;;4935694;29;20202;-76
2021/04/24 08:01:44;;;;;;;0.60;0.60;;;10.00;96.80;;;;;;4936038;29;20210;-78
2021/04/24 08:04:11;;;;;;;0.80;0.80;;;10.10;96.20;;;;;;4935495;29;20233;-76
2021/04/24 08:06:38;;;;;;;0.60;0.60;;;10.20;96.50;;;;;;4935318;29;20214;-75
2021/04/24 08:09:06;;;;;;;0.88;0.88;;;10.30;96.10;;;;;;4935884;29;20270;-77
2021/04/24 08:11:34;;;;;;;0.90;0.90;;;10.30;95.60;;;;;;4935164;29;20252;-74
2021/04/24 08:14:01;;;;;;;0.70;0.70;;;10.20;95.90;;;;;;4935866;29;20230;-76
2021/04/24 08:16:28;;;;;;;0.70;0.70;;;10.30;95.80;;;;;;4935209;29;20386;-76
2021/04/24 08:18:55;;;;;;;0.85;0.85;;;10.20;96.00;;;;;;4934527;29;20702;-76
2021/04/24 08:21:22;;;;;;;0.75;0.75;;;10.40;95.70;;;;;;4934829;29;20618;-78
2021/04/24 08:23:57;;;;;;;0.77;0.77;;;10.50;96.20;;;;;;4935101;29;20600;-76
2021/04/24 08:26:24;;;;;;;0.73;0.73;;;10.50;95.80;;;;;;4936091;29;20201;-77
2021/04/24 08:28:52;;;;;;;0.80;0.80;;;10.80;95.20;;;;;;4936208;29;20225;-77
2021/04/24 08:31:19;;;;;;;0.70;0.70;;;10.90;94.90;;;;;;4935504;29;20210;-77
2021/04/24 08:33:47;;;;;;;0.75;0.75;;;10.80;94.50;;;;;;4935887;29;20281;-78
2021/04/24 08:36:16;;;;;;;0.60;0.60;;;10.80;95.60;;;;;;4935995;29;20216;-77
2021/04/24 08:38:43;;;;;;;0.60;0.60;;;10.90;95.20;;;;;;4936235;29;20209;-77
2021/04/24 08:41:10;;;;;;;0.82;0.82;;;10.90;97.20;;;;;;4937981;29;20726;-79
2021/04/24 08:43:37;;;;;;;0.60;0.60;;;10.90;95.40;;;;;;4931560;29;20739;-78
2021/04/24 08:46:09;;;;;;;0.80;0.80;;;10.80;95.00;;;;;;4935041;29;20230;-78
2021/04/24 08:48:37;;;;;;;0.70;0.70;;;11.10;94.40;;;;;;4934208;29;20229;-77
2021/04/24 08:51:05;;;;;;;0.60;0.60;;;11.50;93.90;;;;;;4934147;29;20238;-76
2021/04/24 08:53:31;;;;;;;0.70;0.70;;;11.60;93.50;;;;;;4934507;29;20618;-77
2021/04/24 08:55:58;;;;;;;0.65;0.65;;;11.20;94.00;;;;;;4934474;29;20194;-76
2021/04/24 08:58:25;;;;;;;0.75;0.75;;;11.50;93.20;;;;;;4934341;29;20619;-77
2021/04/24 09:00:53;;;;;;;0.80;0.80;;;11.60;93.00;;;;;;4933766;29;20582;-77
2021/04/24 09:03:21;;;;;;;0.70;0.70;;;11.90;99.90;;;;;;4934342;29;20611;-78
2021/04/24 09:05:50;;;;;;;0.70;0.70;;;11.60;92.50;;;;;;4934952;29;20249;-78
2021/04/24 09:08:23;;;;;;;0.60;0.60;;;11.50;92.20;;;;;;4934238;29;20363;-78
2021/04/24 09:10:50;;;;;;;0.70;0.70;;;11.60;92.80;;;;;;4934408;29;20257;-77
2021/04/24 09:13:19;;;;;;;0.70;0.70;;;11.00;99.90;;;;;;4935872;29;20579;-78
2021/04/24 09:15:47;;;;;;;0.70;0.70;;;10.90;92.80;;;;;;4939340;29;20206;-78
2021/04/24 09:18:15;;;;;;;0.60;0.60;;;10.80;93.70;;;;;;4938606;29;20285;-80
2021/04/24 09:20:49;;;;;;;0.70;0.70;;;11.10;92.30;;;;;;4940468;29;20206;-80
2021/04/24 09:23:17;;;;;;;0.70;0.70;;;11.80;99.90;;;;;;4941683;29;20222;-81
2021/04/24 09:25:47;;;;;;;0.70;0.70;;;11.50;90.20;;;;;;4939566;29;20694;-77
2021/04/24 09:28:28;;;;;;;0.63;0.63;;;11.70;90.90;;;;;;4939155;29;20226;-78
2021/04/24 09:30:55;;;;;;;0.60;0.60;;;11.50;89.50;;;;;;4939486;29;20213;-77
2021/04/24 09:33:22;;;;;;;0.75;0.75;;;11.50;99.90;;;;;;4936314;29;20210;-77
2021/04/24 09:35:55;;;;;;;0.65;0.65;;;11.70;89.70;;;;;;4935938;29;20671;-77
2021/04/24 09:38:24;;;;;;;0.63;0.63;;;12.00;87.70;;;;;;4952529;29;20194;-77
2021/04/24 09:41:02;;;;;;;0.75;0.75;;;11.50;89.70;;;;;;4947188;28;20194;-75
2021/04/24 09:43:44;;;;;;;0.70;0.70;;;11.80;89.20;;;;;;4954596;29;20726;-77
2021/04/24 09:46:14;;;;;;;0.60;0.60;;;11.70;89.00;;;;;;4946728;29;20580;-77
2021/04/24 09:48:41;;;;;;;0.50;0.50;;;11.70;88.50;;;;;;4944805;29;20221;-77
2021/04/24 09:51:16;;;;;;;0.60;0.60;;;12.10;88.50;;;;;;4953243;29;20194;-77
2021/04/24 09:53:54;;;;;;;0.65;0.65;;;12.60;86.50;;;;;;4946826;29;20225;-79
2021/04/24 09:56:21;;;;;;;0.60;0.60;;;12.40;82.50;;;;;;4952259;29;20210;-75
2021/04/24 09:58:48;;;;;;;0.60;0.60;;;12.30;82.90;;;;;;4950438;29;20198;-77
2021/04/24 10:01:23;;;;;;;0.60;0.60;;;12.00;84.60;;;;;;4949966;29;20233;-81
2021/04/24 10:03:51;;;;;;;0.60;0.60;;;11.40;88.10;;;;;;4948074;29;20693;-80
2021/04/24 10:06:34;;;;;;;0.52;0.52;;;11.30;87.70;;;;;;4946752;29;20237;-81
2021/04/24 10:09:27;;;;;;;0.60;0.60;;;11.70;87.10;;;;;;4943526;29;20375;-81
2021/04/24 10:12:08;;;;;;;0.60;0.60;;;11.50;88.10;;;;;;4943361;29;20210;-79
2021/04/24 10:14:38;;;;;;;0.50;0.50;;;11.60;89.40;;;;;;4944328;29;20593;-80
2021/04/24 10:17:07;;;;;;;0.60;0.60;;;11.90;86.00;;;;;;4942484;29;20210;-79
2021/04/24 10:19:36;;;;;;;0.70;0.70;;;11.70;88.10;;;;;;4943128;29;20206;-78
2021/04/24 10:22:05;;;;;;;0.80;0.80;;;11.80;85.60;;;;;;4941487;29;20619;-78
2021/04/24 10:24:33;;;;;;;0.70;0.70;;;11.70;83.80;;;;;;4945322;29;20261;-78
2021/04/24 10:27:01;;;;;;;0.60;0.60;;;11.30;85.60;;;;;;4944416;29;20385;-79
2021/04/24 10:29:29;;;;;;;0.77;0.77;;;11.50;86.10;;;;;;4940893;29;20218;-79
2021/04/24 10:31:56;;;;;;;0.70;0.70;;;11.70;84.70;;;;;;4939262;29;20619;-83
2021/04/24 10:34:24;;;;;;;0.70;0.70;;;11.90;83.10;;;;;;4943711;29;20236;-82
2021/04/24 10:36:51;;;;;;;0.60;0.60;;;11.80;84.00;;;;;;4942903;29;20626;-80
2021/04/24 10:39:21;;;;;;;0.60;0.60;;;12.10;84.10;;;;;;4942317;29;20257;-80
2021/04/24 10:41:57;;;;;;;0.60;0.60;;;12.00;84.60;;;;;;4942629;29;20238;-80
2021/04/24 10:44:25;;;;;;;0.60;0.60;;;12.20;84.40;;;;;;4942340;29;20953;-80
2021/04/24 10:46:53;;;;;;;0.70;0.70;;;12.20;83.30;;;;;;4941155;29;20717;-79
2021/04/24 10:49:28;;;;;;;0.60;0.60;;;12.30;82.70;;;;;;4941269;29;20586;-79
2021/04/24 10:52:02;;;;;;;0.60;0.60;;;12.00;83.10;;;;;;4938778;29;20198;-78
2021/04/24 10:54:32;;;;;;;0.70;0.70;;;11.90;84.20;;;;;;4939371;29;20254;-82
2021/04/24 10:57:03;;;;;;;0.60;0.60;;;12.10;84.70;;;;;;4940949;29;20205;-80
2021/04/24 10:59:31;;;;;;;0.68;0.68;;;11.80;81.80;;;;;;4937798;29;20202;-76
2021/04/24 11:02:12;;;;;;;0.60;0.60;;;12.40;81.70;;;;;;4941370;29;20257;-78
2021/04/24 11:04:41;;;;;;;0.60;0.60;;;12.30;81.50;;;;;;4939984;29;20218;-79
2021/04/24 11:07:23;;;;;;;0.63;0.63;;;12.20;82.10;;;;;;4939798;29;20198;-79
2021/04/24 11:10:23;;;;;;;0.70;0.70;;;12.40;80.90;;;;;;4940661;29;20221;-79
2021/04/24 11:12:51;;;;;;;0.60;0.60;;;12.50;80.60;;;;;;4945195;29;20198;-77
2021/04/24 11:15:19;;;;;;;0.70;0.70;;;12.60;77.80;;;;;;4946812;29;20222;-76
2021/04/24 11:17:47;;;;;;;0.60;0.60;;;12.50;78.90;;;;;;4954403;29;20253;-80
2021/04/24 11:20:52;;;;;;;0.70;0.70;;;13.00;79.70;;;;;;4957381;29;20248;-80
2021/04/24 11:23:46;;;;;;;0.50;0.50;;;12.90;95.30;;;;;;4954382;29;20228;-79
2021/04/24 11:26:17;;;;;;;0.70;0.70;;;12.90;79.30;;;;;;4948711;29;20198;-80
2021/04/24 11:29:07;;;;;;;0.70;0.70;;;13.00;79.00;;;;;;4947148;29;20218;-79
2021/04/24 11:31:47;;;;;;;0.60;0.60;;;12.90;78.00;;;;;;4940950;29;20205;-82
2021/04/24 11:34:30;;;;;;;0.60;0.60;;;12.50;78.60;;;;;;4954515;29;20218;-81
2021/04/24 11:37:37;;;;;;;0.60;0.60;;;12.70;79.40;;;;;;4947252;29;20320;-81
2021/04/24 11:40:22;;;;;;;0.60;0.60;;;12.90;79.00;;;;;;4954842;29;20194;-80
2021/04/24 11:43:00;;;;;;;0.60;0.60;;;13.10;79.70;;;;;;4954743;29;20405;-79
2021/04/24 11:45:51;;;;;;;0.60;0.60;;;13.10;78.90;;;;;;4956272;29;20210;-81
2021/04/24 11:48:56;;;;;;;0.60;0.60;;;13.70;78.10;;;;;;4954411;29;20209;-80
2021/04/24 11:51:44;;;;;;;0.60;0.60;;;13.60;75.90;;;;;;4954448;29;20439;-83
2021/04/24 11:54:14;;;;;;;0.60;0.60;;;13.10;76.70;;;;;;4954513;29;20253;-80
2021/04/24 11:56:45;;;;;;;0.60;0.60;;;12.50;78.60;;;;;;4954125;29;20197;-81
2021/04/24 11:59:12;;;;;;;0.60;0.60;;;12.60;79.50;;;;;;4954429;29;20257;-81
2021/04/24 12:01:39;;;;;;;0.60;0.60;;;12.60;79.90;;;;;;4951956;29;20694;-81
2021/04/24 12:04:23;;;;;;;0.60;0.60;;;13.00;78.00;;;;;;4953876;29;20243;-80
2021/04/24 12:06:58;;;;;;;0.60;0.60;;;12.80;79.00;;;;;;4952364;29;20226;-79
2021/04/24 12:09:25;;;;;;;0.70;0.70;;;13.00;78.90;;;;;;4951357;29;20225;-76
2021/04/24 12:11:57;;;;;;;0.60;0.60;;;13.20;77.30;;;;;;4932076;29;20206;-77
2021/04/24 12:14:25;;;;;;;0.60;0.60;;;13.20;77.20;;;;;;4937045;29;21308;-77
2021/04/24 12:16:53;;;;;;;0.60;0.60;;;13.40;76.20;;;;;;4951886;29;20230;-77
2021/04/24 12:19:25;;;;;;;0.60;0.60;;;13.60;77.00;;;;;;4951086;29;20265;-77
2021/04/24 12:22:11;;;;;;;0.60;0.60;;;13.50;76.40;;;;;;4944488;29;20624;-77
2021/04/24 12:25:02;;;;;;;0.60;0.60;;;13.30;75.90;;;;;;4948202;29;20281;-77
2021/04/24 12:27:36;;;;;;;0.60;0.60;;;13.10;77.90;;;;;;4951255;29;20301;-78
2021/04/24 12:30:17;;;;;;;0.65;0.65;;;13.00;78.70;;;;;;4952520;29;20229;-77
2021/04/24 12:32:47;;;;;;;0.60;0.60;;;13.10;79.10;;;;;;4949526;29;20249;-76
2021/04/24 12:35:22;;;;;;;0.60;0.60;;;13.20;77.20;;;;;;4948429;29;20229;-77
2021/04/24 12:37:58;;;;;;;0.60;0.60;;;12.80;77.60;;;;;;4946331;29;20218;-77
2021/04/24 12:40:27;;;;;;;0.60;0.60;;;12.80;78.00;;;;;;4943176;29;20206;-77
2021/04/24 12:43:01;;;;;;;0.60;0.60;;;13.30;76.40;;;;;;4940408;29;20245;-77
2021/04/24 12:45:28;;;;;;;0.60;0.60;;;13.30;74.70;;;;;;4952387;29;20237;-78
2021/04/24 12:47:56;;;;;;;0.70;0.70;;;13.20;75.30;;;;;;4954682;29;20203;-77
2021/04/24 12:50:28;;;;;;;0.60;0.60;;;13.00;76.80;;;;;;4950166;29;20226;-77
2021/04/24 12:52:58;;;;;;;0.50;0.50;;;13.00;75.90;;;;;;4948484;29;20205;-76
2021/04/24 12:55:34;;;;;;;0.60;0.60;;;13.10;77.40;;;;;;4947735;29;20229;-76
2021/04/24 12:58:04;;;;;;;0.60;0.60;;;13.40;76.30;;;;;;4943244;29;20210;-75
2021/04/24 13:00:39;;;;;;;0.60;0.60;;;13.30;76.50;;;;;;4946399;29;20202;-75
2021/04/24 13:03:23;;;;;;;0.50;0.50;;;13.20;76.80;;;;;;4947155;29;20205;-77
2021/04/24 13:05:50;;;;;;;0.60;0.60;;;13.20;77.90;;;;;;4947167;29;20205;-76
2021/04/24 13:08:17;;;;;;;0.60;0.60;;;13.30;77.70;;;;;;4946874;29;20234;-76
2021/04/24 13:10:44;;;;;;;0.60;0.60;;;13.20;93.50;;;;;;4945378;29;20226;-77
2021/04/24 13:13:18;;;;;;;0.57;0.57;;;13.40;77.00;;;;;;4938411;29;20206;-76
2021/04/24 13:15:46;;;;;;;0.50;0.50;;;13.40;77.20;;;;;;4938031;29;20210;-77
2021/04/24 13:18:29;;;;;;;0.60;0.60;;;13.40;76.80;;;;;;4938363;29;20217;-75
2021/04/24 13:20:58;;;;;;;0.57;0.57;;;13.20;77.50;;;;;;4938265;29;20221;-76
2021/04/24 13:23:25;;;;;;;0.60;0.60;;;12.70;96.20;;;;;;4940427;29;20229;-75
2021/04/24 13:25:52;;;;;;;0.50;0.50;;;12.00;79.10;;;;;;4943108;29;20213;-78
2021/04/24 13:28:29;;;;;;;0.60;0.60;;;12.80;80.10;;;;;;4944459;29;20216;-75
2021/04/24 13:30:59;;;;;;;0.60;0.60;;;12.80;79.90;;;;;;4945299;29;20675;-78
2021/04/24 13:33:35;;;;;;;0.63;0.63;;;12.70;95.70;;;;;;4941936;29;20305;-78
2021/04/24 13:36:03;;;;;;;0.50;0.50;;;12.70;79.70;;;;;;4940168;29;20813;-76
2021/04/24 13:38:34;;;;;;;0.60;0.60;;;12.90;79.30;;;;;;4943835;29;20213;-77
2021/04/24 13:41:18;;;;;;;0.70;0.70;;;13.00;78.20;;;;;;4943366;29;20216;-77
2021/04/24 13:43:46;;;;;;;0.60;0.60;;;12.70;78.70;;;;;;4945883;29;20234;-78
2021/04/24 13:46:18;;;;;;;0.60;0.60;;;12.60;79.40;;;;;;4945932;29;20272;-78
2021/04/24 13:48:46;;;;;;;0.70;0.70;;;12.80;79.80;;;;;;4945625;29;20264;-77
2021/04/24 13:51:13;;;;;;;0.60;0.60;;;12.90;77.30;;;;;;4945000;29;20694;-77
2021/04/24 13:53:40;;;;;;;0.70;0.70;;;12.70;78.40;;;;;;4944884;29;20233;-78
2021/04/24 13:56:06;;;;;;;0.68;0.68;;;12.60;78.00;;;;;;4944342;29;20210;-76
2021/04/24 13:58:33;;;;;;;0.70;0.70;;;12.40;78.70;;;;;;4942027;29;20209;-78
2021/04/24 14:01:00;;;;;;;0.70;0.70;;;12.50;79.00;;;;;;4944519;29;20616;-80
2021/04/24 14:03:27;;;;;;;0.60;0.60;;;12.80;95.00;;;;;;4944133;29;20210;-77
2021/04/24 14:05:55;;;;;;;0.60;0.60;;;12.80;78.40;;;;;;4951801;29;20209;-77
2021/04/24 14:08:23;;;;;;;0.60;0.60;;;13.00;77.40;;;;;;4945781;29;20253;-77
2021/04/24 14:10:51;;;;;;;0.60;0.60;;;12.80;78.40;;;;;;4939897;29;20234;-75
2021/04/24 14:13:18;;;;;;;0.60;0.60;;;13.10;94.80;;;;;;4938788;29;20206;-77
2021/04/24 14:16:01;;;;;;;0.50;0.50;;;13.10;78.00;;;;;;4945146;29;20212;-82
2021/04/24 14:18:27;;;;;;;0.52;0.52;;;13.50;74.80;;;;;;4946083;29;20690;-81
2021/04/24 14:20:55;;;;;;;0.60;0.60;;;13.50;73.70;;;;;;4944297;29;20205;-81
2021/04/24 14:23:22;;;;;;;0.60;0.60;;;13.00;93.90;;;;;;4943379;29;20213;-77
2021/04/24 14:25:49;;;;;;;0.65;0.65;;;12.90;74.60;;;;;;4936093;29;20221;-76
2021/04/24 14:28:16;;;;;;;0.70;0.70;;;12.90;74.80;;;;;;4934201;29;20207;-76
2021/04/24 14:30:43;;;;;;;0.70;0.70;;;13.00;74.80;;;;;;4937151;29;20590;-76
2021/04/24 14:33:10;;;;;;;0.60;0.60;;;12.90;74.20;;;;;;4938631;29;20213;-75
2021/04/24 14:35:37;;;;;;;0.68;0.68;;;13.20;74.00;;;;;;4939520;29;20237;-78
2021/04/24 14:38:05;;;;;;;0.60;0.60;;;13.90;87.80;;;;;;4941550;29;20262;-78
2021/04/24 14:40:32;;;;;;;0.60;0.60;;;14.20;69.90;;;;;;4943060;29;20206;-78
2021/04/24 14:43:02;;;;;;;0.60;0.60;;;14.10;69.00;;;;;;4942494;29;20206;-76
2021/04/24 14:45:31;;;;;;;0.50;0.50;;;14.20;68.40;;;;;;4938167;29;20234;-77
2021/04/24 14:47:58;;;;;;;0.60;0.60;;;14.40;69.40;;;;;;4939959;29;20206;-78
2021/04/24 14:50:26;;;;;;;0.50;0.50;;;13.90;68.80;;;;;;4943140;29;20261;-78
2021/04/24 14:52:53;;;;;;;0.50;0.50;;;14.30;67.50;;;;;;4942396;29;20604;-78
2021/04/24 14:55:21;;;;;;;0.50;0.50;;;14.40;66.80;;;;;;4943383;29;20226;-78
2021/04/24 14:57:48;;;;;;;0.52;0.52;;;14.10;68.00;;;;;;4940058;29;20212;-78
2021/04/24 15:00:18;;;;;;;0.50;0.50;;;14.20;68.00;;;;;;4938599;29;20652;-76
2021/04/24 15:02:47;;;;;;;0.55;0.55;;;14.40;68.50;;;;;;4941042;29;20190;-78
2021/04/24 15:05:15;;;;;;;0.60;0.60;;;14.50;68.20;;;;;;4940801;29;20222;-77
2021/04/24 15:07:42;;;;;;;0.50;0.50;;;14.50;67.90;;;;;;4939727;29;20204;-78
2021/04/24 15:10:10;;;;;;;0.60;0.60;;;13.80;69.40;;;;;;4941860;29;20691;-76
2021/04/24 15:12:38;;;;;;;0.60;0.60;;;13.10;71.40;;;;;;4941786;29;20277;-77
2021/04/24 15:15:07;;;;;;;0.50;0.50;;;13.00;72.00;;;;;;4940686;29;20574;-77
2021/04/24 15:17:35;;;;;;;0.60;0.60;;;12.90;73.30;;;;;;4941909;29;20198;-79
2021/04/24 15:20:04;;;;;;;0.60;0.60;;;12.90;73.50;;;;;;4941819;29;20199;-77
2021/04/24 15:22:32;;;;;;;0.65;0.65;;;12.80;73.20;;;;;;4940968;29;20233;-78
2021/04/24 15:25:00;;;;;;;0.60;0.60;;;12.70;73.70;;;;;;4941841;29;20658;-79
2021/04/24 15:27:28;;;;;;;0.60;0.60;;;12.70;73.60;;;;;;4939741;29;20668;-79
2021/04/24 15:29:57;;;;;;;0.50;0.50;;;12.90;74.20;;;;;;4941483;29;20224;-77
2021/04/24 15:32:24;;;;;;;0.60;0.60;;;12.70;73.20;;;;;;4939205;29;20209;-79
2021/04/24 15:34:51;;;;;;;0.70;0.70;;;12.90;73.70;;;;;;4937838;29;20217;-78
2021/04/24 15:37:19;;;;;;;0.60;0.60;;;12.70;74.30;;;;;;4942278;29;20301;-77
2021/04/24 15:39:49;;;;;;;0.60;0.60;;;12.90;74.00;;;;;;4940132;29;20194;-77
2021/04/24 15:42:19;;;;;;;0.63;0.63;;;13.10;74.50;;;;;;4941364;29;20236;-78
2021/04/24 15:44:46;;;;;;;0.50;0.50;;;13.10;74.00;;;;;;4941007;29;20263;-78
2021/04/24 15:47:14;;;;;;;0.60;0.60;;;13.20;74.70;;;;;;4941601;29;20703;-77
2021/04/24 15:49:41;;;;;;;0.60;0.60;;;13.00;73.70;;;;;;4941667;29;20218;-77
2021/04/24 15:52:09;;;;;;;0.50;0.50;;;13.00;74.00;;;;;;4941068;29;20261;-79
2021/04/24 15:54:37;;;;;;;0.50;0.50;;;13.00;74.10;;;;;;4939707;29;20236;-79
2021/04/24 15:57:06;;;;;;;0.50;0.50;;;13.10;73.90;;;;;;4938276;29;20210;-79
2021/04/24 15:59:35;;;;;;;0.60;0.60;;;12.80;75.10;;;;;;4941094;29;20198;-79
2021/04/24 16:02:02;;;;;;;0.60;0.60;;;12.80;75.00;;;;;;4942023;29;20209;-79
2021/04/24 16:04:30;;;;;;;0.50;0.50;;;12.90;75.60;;;;;;4940474;29;20226;-80
2021/04/24 16:06:57;;;;;;;0.60;0.60;;;12.90;75.60;;;;;;4942154;29;20212;-80
2021/04/24 16:09:24;;;;;;;0.50;0.50;;;12.90;76.00;;;;;;4941911;29;20222;-80
2021/04/24 16:11:52;;;;;;;0.60;0.60;;;12.90;76.10;;;;;;4941768;29;20205;-79
2021/04/24 16:14:26;;;;;;;0.50;0.50;;;12.80;82.90;;;;;;5116112;27;20520;-79
2021/04/24 16:16:55;;;;;;;0.60;0.60;;;13.00;77.00;;;;;;5116994;28;20184;-80
2021/04/24 16:19:22;;;;;;;0.60;0.60;;;12.80;76.40;;;;;;5119685;28;20200;-78
2021/04/24 16:21:55;;;;;;;0.60;0.60;;;12.80;76.30;;;;;;5120116;28;20263;-78
2021/04/24 16:27:00;;;;;;;0.60;0.60;;;12.80;75.90;;;;;;5033335;28;20624;-80
2021/04/24 16:29:28;;;;;;;0.60;0.60;;;12.90;75.70;;;;;;5035956;28;20301;-81
2021/04/24 16:31:55;;;;;;;0.60;0.60;;;12.80;75.80;;;;;;5037774;28;20234;-81
2021/04/24 16:34:22;;;;;;;0.70;0.70;;;12.80;76.40;;;;;;5033430;28;20268;-79
2021/04/24 16:36:50;;;;;;;0.60;0.60;;;12.60;76.40;;;;;;5033459;28;20211;-78
2021/04/24 16:39:17;;;;;;;0.60;0.60;;;12.50;76.70;;;;;;5032300;28;20204;-79
2021/04/24 16:41:44;;;;;;;0.60;0.60;;;12.60;77.00;;;;;;5032380;28;20260;-79
2021/04/24 16:44:10;;;;;;;0.63;0.63;;;12.80;77.00;;;;;;5030321;28;20249;-77
2021/04/24 16:46:39;;;;;;;0.60;0.60;;;12.70;76.90;;;;;;5030193;28;20246;-78
2021/04/24 16:49:06;;;;;;;0.60;0.60;;;12.90;76.80;;;;;;5031575;28;20677;-78
2021/04/24 16:51:33;;;;;;;0.60;0.60;;;12.70;77.40;;;;;;5031150;28;20199;-79
2021/04/24 16:54:00;;;;;;;0.50;0.50;;;12.90;76.50;;;;;;5031937;28;20413;-79
2021/04/24 16:56:27;;;;;;;0.50;0.50;;;13.20;75.80;;;;;;5032151;28;20218;-79
2021/04/24 16:58:54;;;;;;;0.50;0.50;;;13.40;76.00;;;;;;5031533;28;20253;-78
2021/04/24 17:01:21;;;;;;;0.60;0.60;;;13.40;75.10;;;;;;5030821;28;20206;-77
2021/04/24 17:03:49;;;;;;;0.52;0.52;;;13.30;75.40;;;;;;5031477;28;20561;-79
2021/04/24 17:06:17;;;;;;;0.50;0.50;;;13.20;75.60;;;;;;5030550;28;20231;-78
2021/04/24 17:08:44;;;;;;;0.60;0.60;;;12.70;76.40;;;;;;5031115;28;20203;-79
2021/04/24 17:11:11;;;;;;;0.60;0.60;;;12.70;77.20;;;;;;5029575;28;20198;-79
2021/04/24 17:13:38;;;;;;;0.50;0.50;;;12.40;77.90;;;;;;5030062;28;20302;-79
2021/04/24 17:16:06;;;;;;;0.50;0.50;;;12.30;78.30;;;;;;5030732;28;20284;-78